Terminal Aerodrome Forecast
Issued by NWS

Home | Current Version | Previous Version | Text Only | Print | Product List | Glossary On
Versions: 1 2 3 4 5 6 7 8 9 10 11 12 13 14 15 16 17 18 19
000
FTUS45 KBOU 230048 AAA
TAFBJC
TAF AMD
KBJC 230048Z 2301/2324 15008KT P6SM VCTS SCT090CB BKN130
      TEMPO 2301/2303 VRB15G28KT BKN090CB
     FM230400 29005KT P6SM SCT130
     FM231700 01007KT P6SM FEW090 SCT130
     FM232200 05008KT P6SM SCT090 BKN130 PROB30 2322/2324 VRB15G28KT
      -TSRA BKN090CB=

USA.gov is the U.S. government's official web portal to all federal, state and local government web resources and services.